sensor_id;sensor_type;location;lat;lon;timestamp;P1;durP1;ratioP1;P2;durP2;ratioP2
52468;SDS011;38381;53.688;10.776;2024-02-15T00:03:00;12.13;;;10.43;;
52468;SDS011;38381;53.688;10.776;2024-02-15T00:08:00;12.70;;;9.30;;
52468;SDS011;38381;53.688;10.776;2024-02-15T00:13:01;11.85;;;9.07;;
52468;SDS011;38381;53.688;10.776;2024-02-15T00:18:02;9.02;;;7.43;;
52468;SDS011;38381;53.688;10.776;2024-02-15T00:23:04;8.10;;;6.95;;
52468;SDS011;38381;53.688;10.776;2024-02-15T00:28:06;10.80;;;6.82;;
52468;SDS011;38381;53.688;10.776;2024-02-15T00:33:07;8.68;;;6.30;;
52468;SDS011;38381;53.688;10.776;2024-02-15T00:38:07;7.93;;;6.47;;
52468;SDS011;38381;53.688;10.776;2024-02-15T00:43:08;7.15;;;5.63;;
52468;SDS011;38381;53.688;10.776;2024-02-15T00:48:08;7.32;;;5.45;;
52468;SDS011;38381;53.688;10.776;2024-02-15T00:53:10;8.05;;;5.55;;
52468;SDS011;38381;53.688;10.776;2024-02-15T00:58:10;7.22;;;6.15;;
52468;SDS011;38381;53.688;10.776;2024-02-15T01:03:11;8.43;;;6.00;;
52468;SDS011;38381;53.688;10.776;2024-02-15T01:08:11;7.82;;;7.03;;
52468;SDS011;38381;53.688;10.776;2024-02-15T01:13:12;9.82;;;6.18;;
52468;SDS011;38381;53.688;10.776;2024-02-15T01:18:12;8.50;;;6.00;;
52468;SDS011;38381;53.688;10.776;2024-02-15T01:23:14;6.40;;;5.80;;
52468;SDS011;38381;53.688;10.776;2024-02-15T01:28:14;9.43;;;7.15;;
52468;SDS011;38381;53.688;10.776;2024-02-15T01:33:15;8.07;;;6.43;;
52468;SDS011;38381;53.688;10.776;2024-02-15T01:38:15;9.32;;;7.40;;
52468;SDS011;38381;53.688;10.776;2024-02-15T01:43:15;9.82;;;7.82;;
52468;SDS011;38381;53.688;10.776;2024-02-15T01:48:16;13.60;;;10.45;;
52468;SDS011;38381;53.688;10.776;2024-02-15T01:53:17;14.82;;;11.55;;
52468;SDS011;38381;53.688;10.776;2024-02-15T01:58:17;15.27;;;11.63;;
52468;SDS011;38381;53.688;10.776;2024-02-15T02:03:19;16.02;;;10.88;;
52468;SDS011;38381;53.688;10.776;2024-02-15T02:08:21;13.77;;;12.30;;
52468;SDS011;38381;53.688;10.776;2024-02-15T02:13:22;17.40;;;13.30;;
52468;SDS011;38381;53.688;10.776;2024-02-15T02:18:23;14.10;;;10.40;;
52468;SDS011;38381;53.688;10.776;2024-02-15T02:23:25;15.77;;;12.25;;
52468;SDS011;38381;53.688;10.776;2024-02-15T02:28:26;12.10;;;10.48;;
52468;SDS011;38381;53.688;10.776;2024-02-15T02:33:28;12.97;;;9.77;;
52468;SDS011;38381;53.688;10.776;2024-02-15T02:38:28;13.45;;;9.80;;
52468;SDS011;38381;53.688;10.776;2024-02-15T02:43:29;13.67;;;10.03;;
52468;SDS011;38381;53.688;10.776;2024-02-15T02:48:29;9.90;;;8.00;;
52468;SDS011;38381;53.688;10.776;2024-02-15T02:53:30;12.00;;;8.80;;
52468;SDS011;38381;53.688;10.776;2024-02-15T02:58:30;9.77;;;7.17;;
52468;SDS011;38381;53.688;10.776;2024-02-15T03:03:31;8.40;;;7.28;;
52468;SDS011;38381;53.688;10.776;2024-02-15T03:08:31;8.80;;;7.30;;
52468;SDS011;38381;53.688;10.776;2024-02-15T03:13:32;8.52;;;6.53;;
52468;SDS011;38381;53.688;10.776;2024-02-15T03:18:33;9.10;;;7.75;;
52468;SDS011;38381;53.688;10.776;2024-02-15T03:23:33;13.75;;;9.05;;
52468;SDS011;38381;53.688;10.776;2024-02-15T03:28:33;14.23;;;10.68;;
52468;SDS011;38381;53.688;10.776;2024-02-15T03:33:36;12.75;;;10.93;;
52468;SDS011;38381;53.688;10.776;2024-02-15T03:38:37;16.13;;;11.27;;
52468;SDS011;38381;53.688;10.776;2024-02-15T03:43:37;15.23;;;12.70;;
52468;SDS011;38381;53.688;10.776;2024-02-15T03:48:39;16.33;;;11.32;;
52468;SDS011;38381;53.688;10.776;2024-02-15T03:53:42;13.68;;;9.85;;
52468;SDS011;38381;53.688;10.776;2024-02-15T03:58:42;14.18;;;11.93;;
52468;SDS011;38381;53.688;10.776;2024-02-15T04:03:43;12.87;;;10.60;;
52468;SDS011;38381;53.688;10.776;2024-02-15T04:08:43;22.08;;;13.35;;
52468;SDS011;38381;53.688;10.776;2024-02-15T04:13:44;15.30;;;13.60;;
52468;SDS011;38381;53.688;10.776;2024-02-15T04:18:44;16.67;;;13.13;;
52468;SDS011;38381;53.688;10.776;2024-02-15T04:23:45;16.20;;;13.32;;
52468;SDS011;38381;53.688;10.776;2024-02-15T04:28:46;15.85;;;11.63;;
52468;SDS011;38381;53.688;10.776;2024-02-15T04:33:53;14.48;;;11.82;;
52468;SDS011;38381;53.688;10.776;2024-02-15T04:38:54;12.37;;;9.53;;
52468;SDS011;38381;53.688;10.776;2024-02-15T04:43:54;14.88;;;11.55;;
52468;SDS011;38381;53.688;10.776;2024-02-15T04:48:54;12.50;;;10.20;;
52468;SDS011;38381;53.688;10.776;2024-02-15T04:53:56;12.63;;;10.23;;
52468;SDS011;38381;53.688;10.776;2024-02-15T04:58:57;13.60;;;10.93;;
52468;SDS011;38381;53.688;10.776;2024-02-15T05:03:58;14.70;;;10.53;;
52468;SDS011;38381;53.688;10.776;2024-02-15T05:08:58;13.75;;;9.63;;
52468;SDS011;38381;53.688;10.776;2024-02-15T05:14:07;9.50;;;8.55;;
52468;SDS011;38381;53.688;10.776;2024-02-15T05:19:08;18.40;;;9.05;;
52468;SDS011;38381;53.688;10.776;2024-02-15T05:24:15;12.35;;;8.45;;
52468;SDS011;38381;53.688;10.776;2024-02-15T05:29:16;15.82;;;10.82;;
52468;SDS011;38381;53.688;10.776;2024-02-15T05:34:16;18.42;;;11.65;;
52468;SDS011;38381;53.688;10.776;2024-02-15T05:39:17;18.83;;;11.60;;
52468;SDS011;38381;53.688;10.776;2024-02-15T05:44:21;15.90;;;12.10;;
52468;SDS011;38381;53.688;10.776;2024-02-15T05:49:22;17.20;;;13.27;;
52468;SDS011;38381;53.688;10.776;2024-02-15T05:54:24;18.23;;;13.60;;
52468;SDS011;38381;53.688;10.776;2024-02-15T05:59:24;20.13;;;14.82;;
52468;SDS011;38381;53.688;10.776;2024-02-15T06:04:25;18.63;;;15.10;;
52468;SDS011;38381;53.688;10.776;2024-02-15T06:09:27;21.88;;;16.92;;
52468;SDS011;38381;53.688;10.776;2024-02-15T06:14:30;18.25;;;12.80;;
52468;SDS011;38381;53.688;10.776;2024-02-15T06:19:31;21.38;;;15.52;;
52468;SDS011;38381;53.688;10.776;2024-02-15T06:24:32;19.73;;;15.93;;
52468;SDS011;38381;53.688;10.776;2024-02-15T06:29:34;20.85;;;16.50;;
52468;SDS011;38381;53.688;10.776;2024-02-15T06:34:53;21.38;;;15.10;;
52468;SDS011;38381;53.688;10.776;2024-02-15T06:40:12;21.48;;;14.90;;
52468;SDS011;38381;53.688;10.776;2024-02-15T06:45:13;20.85;;;16.33;;
52468;SDS011;38381;53.688;10.776;2024-02-15T06:50:14;23.60;;;16.48;;
52468;SDS011;38381;53.688;10.776;2024-02-15T06:55:14;19.58;;;15.02;;
52468;SDS011;38381;53.688;10.776;2024-02-15T07:00:15;18.92;;;14.45;;
52468;SDS011;38381;53.688;10.776;2024-02-15T07:05:15;22.60;;;14.18;;
52468;SDS011;38381;53.688;10.776;2024-02-15T07:10:17;19.65;;;13.90;;
52468;SDS011;38381;53.688;10.776;2024-02-15T07:15:17;23.33;;;13.70;;
52468;SDS011;38381;53.688;10.776;2024-02-15T07:20:18;17.20;;;14.10;;
52468;SDS011;38381;53.688;10.776;2024-02-15T07:25:18;26.95;;;14.82;;
52468;SDS011;38381;53.688;10.776;2024-02-15T07:30:19;22.00;;;15.25;;
52468;SDS011;38381;53.688;10.776;2024-02-15T07:35:19;23.55;;;15.77;;
52468;SDS011;38381;53.688;10.776;2024-02-15T07:40:20;23.50;;;16.98;;
52468;SDS011;38381;53.688;10.776;2024-02-15T07:45:22;20.88;;;14.18;;
52468;SDS011;38381;53.688;10.776;2024-02-15T07:50:23;21.55;;;15.93;;
52468;SDS011;38381;53.688;10.776;2024-02-15T07:55:23;20.80;;;15.17;;
52468;SDS011;38381;53.688;10.776;2024-02-15T08:00:28;24.45;;;17.45;;
52468;SDS011;38381;53.688;10.776;2024-02-15T08:05:29;26.57;;;16.30;;
52468;SDS011;38381;53.688;10.776;2024-02-15T08:10:30;23.25;;;16.13;;
52468;SDS011;38381;53.688;10.776;2024-02-15T08:15:30;24.17;;;14.55;;
52468;SDS011;38381;53.688;10.776;2024-02-15T08:20:32;24.73;;;15.53;;
52468;SDS011;38381;53.688;10.776;2024-02-15T08:25:34;20.50;;;14.23;;
52468;SDS011;38381;53.688;10.776;2024-02-15T08:30:40;23.38;;;16.50;;
52468;SDS011;38381;53.688;10.776;2024-02-15T08:35:41;21.25;;;16.90;;
52468;SDS011;38381;53.688;10.776;2024-02-15T08:40:41;23.27;;;14.67;;
52468;SDS011;38381;53.688;10.776;2024-02-15T08:45:44;22.63;;;16.52;;
52468;SDS011;38381;53.688;10.776;2024-02-15T08:50:44;23.58;;;15.82;;
52468;SDS011;38381;53.688;10.776;2024-02-15T08:55:45;25.08;;;15.65;;
52468;SDS011;38381;53.688;10.776;2024-02-15T09:00:46;22.00;;;16.17;;
52468;SDS011;38381;53.688;10.776;2024-02-15T09:05:46;20.33;;;13.88;;
52468;SDS011;38381;53.688;10.776;2024-02-15T09:10:49;20.15;;;12.85;;
52468;SDS011;38381;53.688;10.776;2024-02-15T09:15:50;22.60;;;15.18;;
52468;SDS011;38381;53.688;10.776;2024-02-15T09:20:50;18.65;;;12.68;;
52468;SDS011;38381;53.688;10.776;2024-02-15T09:25:55;18.83;;;13.77;;
52468;SDS011;38381;53.688;10.776;2024-02-15T09:30:55;19.23;;;12.60;;
52468;SDS011;38381;53.688;10.776;2024-02-15T09:35:59;17.60;;;12.88;;
52468;SDS011;38381;53.688;10.776;2024-02-15T09:40:59;19.33;;;13.97;;
52468;SDS011;38381;53.688;10.776;2024-02-15T09:46:00;18.50;;;12.55;;
52468;SDS011;38381;53.688;10.776;2024-02-15T09:51:04;15.40;;;11.57;;
52468;SDS011;38381;53.688;10.776;2024-02-15T09:56:07;15.38;;;10.90;;
52468;SDS011;38381;53.688;10.776;2024-02-15T10:01:08;13.35;;;10.30;;
52468;SDS011;38381;53.688;10.776;2024-02-15T10:06:10;14.13;;;10.35;;
52468;SDS011;38381;53.688;10.776;2024-02-15T10:11:11;12.30;;;9.00;;
52468;SDS011;38381;53.688;10.776;2024-02-15T10:16:15;12.88;;;10.00;;
52468;SDS011;38381;53.688;10.776;2024-02-15T10:21:25;11.95;;;9.38;;
52468;SDS011;38381;53.688;10.776;2024-02-15T10:26:26;13.20;;;10.40;;
52468;SDS011;38381;53.688;10.776;2024-02-15T10:31:28;13.07;;;10.65;;
52468;SDS011;38381;53.688;10.776;2024-02-15T10:36:28;15.75;;;9.27;;
52468;SDS011;38381;53.688;10.776;2024-02-15T10:41:29;11.90;;;9.50;;
52468;SDS011;38381;53.688;10.776;2024-02-15T10:46:30;11.82;;;8.98;;
52468;SDS011;38381;53.688;10.776;2024-02-15T10:51:30;13.35;;;9.30;;
52468;SDS011;38381;53.688;10.776;2024-02-15T10:56:36;12.52;;;9.77;;
52468;SDS011;38381;53.688;10.776;2024-02-15T11:01:42;11.88;;;8.82;;
52468;SDS011;38381;53.688;10.776;2024-02-15T11:06:46;10.77;;;8.55;;
52468;SDS011;38381;53.688;10.776;2024-02-15T11:11:51;13.30;;;9.73;;
52468;SDS011;38381;53.688;10.776;2024-02-15T11:16:53;13.85;;;9.48;;
52468;SDS011;38381;53.688;10.776;2024-02-15T11:21:53;10.43;;;9.10;;
52468;SDS011;38381;53.688;10.776;2024-02-15T11:27:00;13.43;;;9.57;;
52468;SDS011;38381;53.688;10.776;2024-02-15T11:32:04;12.98;;;9.18;;
52468;SDS011;38381;53.688;10.776;2024-02-15T11:37:05;16.50;;;10.60;;
52468;SDS011;38381;53.688;10.776;2024-02-15T11:47:25;13.73;;;11.25;;
52468;SDS011;38381;53.688;10.776;2024-02-15T11:52:26;14.30;;;11.60;;
52468;SDS011;38381;53.688;10.776;2024-02-15T11:57:27;14.90;;;12.52;;
52468;SDS011;38381;53.688;10.776;2024-02-15T12:02:36;18.95;;;13.10;;
52468;SDS011;38381;53.688;10.776;2024-02-15T12:07:55;16.10;;;12.65;;
52468;SDS011;38381;53.688;10.776;2024-02-15T12:13:17;15.63;;;12.75;;
52468;SDS011;38381;53.688;10.776;2024-02-15T12:18:36;16.48;;;13.70;;
52468;SDS011;38381;53.688;10.776;2024-02-15T12:23:42;17.50;;;13.45;;
52468;SDS011;38381;53.688;10.776;2024-02-15T12:28:43;15.38;;;12.85;;
52468;SDS011;38381;53.688;10.776;2024-02-15T12:33:43;20.63;;;14.73;;
52468;SDS011;38381;53.688;10.776;2024-02-15T12:38:44;16.67;;;13.45;;
52468;SDS011;38381;53.688;10.776;2024-02-15T12:43:45;17.50;;;13.37;;
52468;SDS011;38381;53.688;10.776;2024-02-15T12:48:45;18.50;;;14.23;;
52468;SDS011;38381;53.688;10.776;2024-02-15T12:53:46;20.80;;;16.55;;
52468;SDS011;38381;53.688;10.776;2024-02-15T12:58:47;19.27;;;15.10;;
52468;SDS011;38381;53.688;10.776;2024-02-15T13:03:47;18.40;;;15.37;;
52468;SDS011;38381;53.688;10.776;2024-02-15T13:08:47;17.10;;;14.45;;
52468;SDS011;38381;53.688;10.776;2024-02-15T13:13:48;17.10;;;14.48;;
52468;SDS011;38381;53.688;10.776;2024-02-15T13:18:49;19.02;;;16.27;;
52468;SDS011;38381;53.688;10.776;2024-02-15T13:23:49;21.55;;;17.33;;
52468;SDS011;38381;53.688;10.776;2024-02-15T13:28:50;19.15;;;16.92;;
52468;SDS011;38381;53.688;10.776;2024-02-15T13:33:50;19.80;;;15.38;;
52468;SDS011;38381;53.688;10.776;2024-02-15T13:38:51;22.25;;;19.25;;
52468;SDS011;38381;53.688;10.776;2024-02-15T13:43:51;19.73;;;14.23;;
52468;SDS011;38381;53.688;10.776;2024-02-15T13:48:52;22.30;;;16.80;;
52468;SDS011;38381;53.688;10.776;2024-02-15T13:53:52;18.42;;;15.70;;
52468;SDS011;38381;53.688;10.776;2024-02-15T13:58:52;15.32;;;13.52;;
52468;SDS011;38381;53.688;10.776;2024-02-15T14:03:53;21.75;;;16.90;;
52468;SDS011;38381;53.688;10.776;2024-02-15T14:08:53;18.77;;;14.07;;
52468;SDS011;38381;53.688;10.776;2024-02-15T14:13:54;14.93;;;12.98;;
52468;SDS011;38381;53.688;10.776;2024-02-15T14:18:58;14.57;;;12.80;;
52468;SDS011;38381;53.688;10.776;2024-02-15T14:23:59;15.18;;;13.38;;
52468;SDS011;38381;53.688;10.776;2024-02-15T14:29:00;16.75;;;13.43;;
52468;SDS011;38381;53.688;10.776;2024-02-15T14:34:03;12.73;;;10.63;;
52468;SDS011;38381;53.688;10.776;2024-02-15T14:39:04;14.50;;;11.02;;
52468;SDS011;38381;53.688;10.776;2024-02-15T14:44:05;12.85;;;11.40;;
52468;SDS011;38381;53.688;10.776;2024-02-15T14:49:05;13.55;;;10.48;;
52468;SDS011;38381;53.688;10.776;2024-02-15T14:54:06;12.52;;;9.40;;
52468;SDS011;38381;53.688;10.776;2024-02-15T14:59:07;10.95;;;8.45;;
52468;SDS011;38381;53.688;10.776;2024-02-15T15:04:07;7.83;;;7.03;;
52468;SDS011;38381;53.688;10.776;2024-02-15T15:09:10;8.30;;;6.88;;
52468;SDS011;38381;53.688;10.776;2024-02-15T15:14:29;9.32;;;6.38;;
52468;SDS011;38381;53.688;10.776;2024-02-15T15:19:30;8.80;;;6.47;;
52468;SDS011;38381;53.688;10.776;2024-02-15T15:24:31;9.15;;;6.68;;
52468;SDS011;38381;53.688;10.776;2024-02-15T15:29:32;8.50;;;7.32;;
52468;SDS011;38381;53.688;10.776;2024-02-15T15:34:34;10.18;;;7.43;;
52468;SDS011;38381;53.688;10.776;2024-02-15T15:39:34;8.23;;;6.03;;
52468;SDS011;38381;53.688;10.776;2024-02-15T15:44:36;7.35;;;6.65;;
52468;SDS011;38381;53.688;10.776;2024-02-15T15:49:37;7.72;;;6.93;;
52468;SDS011;38381;53.688;10.776;2024-02-15T15:54:39;8.67;;;7.07;;
52468;SDS011;38381;53.688;10.776;2024-02-15T15:59:40;7.15;;;6.05;;
52468;SDS011;38381;53.688;10.776;2024-02-15T16:04:44;9.45;;;6.38;;
52468;SDS011;38381;53.688;10.776;2024-02-15T16:09:45;7.10;;;6.40;;
52468;SDS011;38381;53.688;10.776;2024-02-15T16:14:48;8.77;;;7.18;;
52468;SDS011;38381;53.688;10.776;2024-02-15T16:19:49;9.38;;;8.18;;
52468;SDS011;38381;53.688;10.776;2024-02-15T16:24:49;7.10;;;6.47;;
52468;SDS011;38381;53.688;10.776;2024-02-15T16:29:51;7.47;;;6.68;;
52468;SDS011;38381;53.688;10.776;2024-02-15T16:34:51;9.00;;;8.10;;
52468;SDS011;38381;53.688;10.776;2024-02-15T16:39:52;9.27;;;8.27;;
52468;SDS011;38381;53.688;10.776;2024-02-15T16:44:52;10.60;;;8.40;;
52468;SDS011;38381;53.688;10.776;2024-02-15T16:49:53;9.27;;;8.13;;
52468;SDS011;38381;53.688;10.776;2024-02-15T16:54:53;9.70;;;7.65;;
52468;SDS011;38381;53.688;10.776;2024-02-15T16:59:54;10.23;;;9.23;;
52468;SDS011;38381;53.688;10.776;2024-02-15T17:04:54;12.45;;;8.63;;
52468;SDS011;38381;53.688;10.776;2024-02-15T17:09:55;9.52;;;8.52;;
52468;SDS011;38381;53.688;10.776;2024-02-15T17:14:56;10.60;;;8.82;;
52468;SDS011;38381;53.688;10.776;2024-02-15T17:19:56;11.13;;;8.60;;
52468;SDS011;38381;53.688;10.776;2024-02-15T17:24:57;12.75;;;10.43;;
52468;SDS011;38381;53.688;10.776;2024-02-15T17:29:57;11.53;;;10.30;;
52468;SDS011;38381;53.688;10.776;2024-02-15T17:34:58;11.27;;;9.00;;
52468;SDS011;38381;53.688;10.776;2024-02-15T17:39:58;15.32;;;9.60;;
52468;SDS011;38381;53.688;10.776;2024-02-15T17:44:58;11.97;;;9.77;;
52468;SDS011;38381;53.688;10.776;2024-02-15T17:50:00;9.73;;;8.73;;
52468;SDS011;38381;53.688;10.776;2024-02-15T17:55:01;11.03;;;9.40;;
52468;SDS011;38381;53.688;10.776;2024-02-15T18:00:03;13.15;;;11.20;;
52468;SDS011;38381;53.688;10.776;2024-02-15T18:05:08;9.85;;;8.85;;
52468;SDS011;38381;53.688;10.776;2024-02-15T18:10:10;13.82;;;10.18;;
52468;SDS011;38381;53.688;10.776;2024-02-15T18:15:11;10.00;;;8.95;;
52468;SDS011;38381;53.688;10.776;2024-02-15T18:20:24;10.35;;;8.25;;
52468;SDS011;38381;53.688;10.776;2024-02-15T18:25:25;9.65;;;8.77;;
52468;SDS011;38381;53.688;10.776;2024-02-15T18:30:25;9.85;;;8.68;;
52468;SDS011;38381;53.688;10.776;2024-02-15T18:35:31;8.55;;;7.60;;
52468;SDS011;38381;53.688;10.776;2024-02-15T18:40:32;12.93;;;9.53;;
52468;SDS011;38381;53.688;10.776;2024-02-15T18:45:33;9.40;;;8.35;;
52468;SDS011;38381;53.688;10.776;2024-02-15T18:50:34;10.50;;;9.00;;
52468;SDS011;38381;53.688;10.776;2024-02-15T18:55:35;12.07;;;9.88;;
52468;SDS011;38381;53.688;10.776;2024-02-15T19:00:36;13.73;;;10.05;;
52468;SDS011;38381;53.688;10.776;2024-02-15T19:05:41;12.05;;;10.02;;
52468;SDS011;38381;53.688;10.776;2024-02-15T19:10:44;10.00;;;7.82;;
52468;SDS011;38381;53.688;10.776;2024-02-15T19:15:44;9.40;;;8.45;;
52468;SDS011;38381;53.688;10.776;2024-02-15T19:20:45;9.63;;;7.72;;
52468;SDS011;38381;53.688;10.776;2024-02-15T19:25:45;9.82;;;8.45;;
52468;SDS011;38381;53.688;10.776;2024-02-15T19:30:46;10.65;;;9.00;;
52468;SDS011;38381;53.688;10.776;2024-02-15T19:35:48;10.05;;;8.75;;
52468;SDS011;38381;53.688;10.776;2024-02-15T19:40:49;12.05;;;8.48;;
52468;SDS011;38381;53.688;10.776;2024-02-15T19:45:49;9.77;;;8.18;;
52468;SDS011;38381;53.688;10.776;2024-02-15T19:50:49;9.13;;;8.33;;
52468;SDS011;38381;53.688;10.776;2024-02-15T19:55:50;9.68;;;8.75;;
52468;SDS011;38381;53.688;10.776;2024-02-15T20:00:50;8.27;;;7.45;;
52468;SDS011;38381;53.688;10.776;2024-02-15T20:05:51;9.60;;;8.68;;
52468;SDS011;38381;53.688;10.776;2024-02-15T20:10:52;11.73;;;8.98;;
52468;SDS011;38381;53.688;10.776;2024-02-15T20:15:56;10.27;;;9.23;;
52468;SDS011;38381;53.688;10.776;2024-02-15T20:21:01;13.18;;;9.57;;
52468;SDS011;38381;53.688;10.776;2024-02-15T20:31:07;9.27;;;8.18;;
52468;SDS011;38381;53.688;10.776;2024-02-15T20:36:08;9.60;;;8.10;;
52468;SDS011;38381;53.688;10.776;2024-02-15T20:41:08;15.00;;;8.95;;
52468;SDS011;38381;53.688;10.776;2024-02-15T20:46:12;11.15;;;8.25;;
52468;SDS011;38381;53.688;10.776;2024-02-15T20:51:14;15.05;;;8.85;;
52468;SDS011;38381;53.688;10.776;2024-02-15T20:56:15;9.27;;;8.30;;
52468;SDS011;38381;53.688;10.776;2024-02-15T21:01:16;12.15;;;9.20;;
52468;SDS011;38381;53.688;10.776;2024-02-15T21:06:18;9.77;;;8.27;;
52468;SDS011;38381;53.688;10.776;2024-02-15T21:11:22;8.93;;;7.45;;
52468;SDS011;38381;53.688;10.776;2024-02-15T21:16:24;8.57;;;7.38;;
52468;SDS011;38381;53.688;10.776;2024-02-15T21:21:25;8.35;;;6.80;;
52468;SDS011;38381;53.688;10.776;2024-02-15T21:26:26;10.18;;;6.85;;
52468;SDS011;38381;53.688;10.776;2024-02-15T21:31:27;9.85;;;7.10;;
52468;SDS011;38381;53.688;10.776;2024-02-15T21:36:27;12.43;;;7.70;;
52468;SDS011;38381;53.688;10.776;2024-02-15T21:41:27;10.20;;;6.20;;
52468;SDS011;38381;53.688;10.776;2024-02-15T21:46:28;7.68;;;6.97;;
52468;SDS011;38381;53.688;10.776;2024-02-15T21:51:28;11.35;;;7.32;;
52468;SDS011;38381;53.688;10.776;2024-02-15T21:56:29;9.88;;;6.20;;
52468;SDS011;38381;53.688;10.776;2024-02-15T22:01:29;10.53;;;6.93;;
52468;SDS011;38381;53.688;10.776;2024-02-15T22:06:31;10.80;;;7.90;;
52468;SDS011;38381;53.688;10.776;2024-02-15T22:11:31;7.27;;;6.57;;
52468;SDS011;38381;53.688;10.776;2024-02-15T22:16:32;9.15;;;7.70;;
52468;SDS011;38381;53.688;10.776;2024-02-15T22:21:33;8.80;;;7.30;;
52468;SDS011;38381;53.688;10.776;2024-02-15T22:26:34;10.55;;;6.78;;
52468;SDS011;38381;53.688;10.776;2024-02-15T22:31:34;7.00;;;6.30;;
52468;SDS011;38381;53.688;10.776;2024-02-15T22:36:35;9.38;;;7.82;;
52468;SDS011;38381;53.688;10.776;2024-02-15T22:41:36;7.85;;;7.03;;
52468;SDS011;38381;53.688;10.776;2024-02-15T22:46:46;8.95;;;8.05;;
52468;SDS011;38381;53.688;10.776;2024-02-15T22:51:51;8.02;;;6.68;;
52468;SDS011;38381;53.688;10.776;2024-02-15T22:56:51;11.13;;;8.07;;
52468;SDS011;38381;53.688;10.776;2024-02-15T23:01:52;10.05;;;7.15;;
52468;SDS011;38381;53.688;10.776;2024-02-15T23:06:52;6.78;;;6.03;;
52468;SDS011;38381;53.688;10.776;2024-02-15T23:11:53;11.93;;;7.03;;
52468;SDS011;38381;53.688;10.776;2024-02-15T23:16:54;7.10;;;6.40;;
52468;SDS011;38381;53.688;10.776;2024-02-15T23:21:55;6.75;;;6.05;;
52468;SDS011;38381;53.688;10.776;2024-02-15T23:26:55;7.00;;;5.60;;
52468;SDS011;38381;53.688;10.776;2024-02-15T23:31:56;7.38;;;6.05;;
52468;SDS011;38381;53.688;10.776;2024-02-15T23:36:57;7.18;;;5.72;;
52468;SDS011;38381;53.688;10.776;2024-02-15T23:42:16;6.90;;;6.18;;
52468;SDS011;38381;53.688;10.776;2024-02-15T23:47:19;9.57;;;5.75;;
52468;SDS011;38381;53.688;10.776;2024-02-15T23:52:20;6.93;;;6.00;;
52468;SDS011;38381;53.688;10.776;2024-02-15T23:57:20;6.30;;;5.45;;
